Huvudsida
METAR-TAF:

METAR-TAF

Flygplatser :

Torsby flygplats

Torsby, Sverige

latitud: 60-09-17N, longitud: 12-59-40E, höjd: 120 m

Aktuellt väderrapport

Denna rapport gjordes för 33 minuter sedan, klockan 09:20 UTC
Vind 4 kt från ost/sydost, varierande mellan nordost och syd
Temperatur 23°C
Fuktighet 36%
Tryck 1031 hPa
Sikt 10 km eller mer

METAR: ESST 270920Z AUTO 12004KT 040V170 9999 ///////// 23/07 Q1031

Tid: 11:53 (09:53 UTC)


TAF: saknas

Aktuella väderrapporter och prognoser från 4000 flygplatser (METAR- och TAF-rapporter).

De tillgängliga stationerna syns som gula och röda prickar på kartan.

För musen över prickarna för att se namnen på stationerna.

Klicka sedan för att få väderrapporter och prognoser.

För att ändra kartan: Klicka på de gröna knapparna med ett svart kors på för att zooma in; den gröna knappen med ett streck på för att zooma ut; eller på de gröna pilarna för angränsande kartor.


METAR-TAF: